Island Supplier — WCZ2444 — position and weather

sailwx.info

Track history (hours):
 
Tides and Currents Weather Stations Pressure Air Temp Water Temp Dewpoint Dewpoint Depression Visibility Wind Speed Wind Dir Waves Ship Positions

Island Supplier

More information available from US FCC via Universal Licensing System and Coast Guard Vessel Documentation Center.

Last reported at 2014-Aug-28 19:12 UTC. Time now 2014-Aug-31 04:35 UTC.
Position N 33°26' W 118°33'.

Length 22 m; draft 1 m.

Type: Cargo ship. MMSI: 366765690.

Date/timePositionNaut miles runAvg speedWind from/ knotsBaromVisibWave heightAir tempDewpointWater temp
2014-Aug-28 19:12N 33°26' W 118°33'4 6.2
2014-Aug-28 18:33N 33°29' W 118°37'6 6.2
2014-Aug-28 17:33N 33°32' W 118°31'8 6.7
2014-Aug-28 16:18N 33°38' W 118°23'5 6.3
2014-Aug-28 15:33N 33°40' W 118°18'5 0.2
2014-Aug-27 17:28N 33°45' W 118°16'0 0.0
2014-Aug-27 16:33N 33°45' W 118°16'0 0.0
2014-Aug-27 15:33N 33°45' W 118°16'0 0.0
2014-Aug-27 14:34N 33°45' W 118°16'0 0.0
2014-Aug-27 13:28N 33°45' W 118°16'4 4.1
2014-Aug-27 12:33N 33°41' W 118°16'7 7.2
2014-Aug-27 11:33N 33°36' W 118°21'8 7.3
2014-Aug-27 10:28N 33°29' W 118°27'  
2014-Aug-22 21:26N 33°26' W 118°34'  
Track history (hours):
 
Tides and Currents Weather Stations Pressure Air Temp Water Temp Dewpoint Dewpoint Depression Visibility Wind Speed Wind Dir Waves Ship Positions

Island Supplier

More information available from US FCC via Universal Licensing System and Coast Guard Vessel Documentation Center.

Last reported at 2014-Aug-28 19:12 UTC. Time now 2014-Aug-31 04:35 UTC.
Position N 33°26' W 118°33'.

Length 22 m; draft 1 m.

Type: Cargo ship. MMSI: 366765690.

Date/timePositionNaut miles runAvg speedWind from/ knotsBaromVisibWave heightAir tempDewpointWater temp
2014-Aug-28 19:12N 33°26' W 118°33'4 6.2
2014-Aug-28 18:33N 33°29' W 118°37'6 6.2
2014-Aug-28 17:33N 33°32' W 118°31'8 6.7
2014-Aug-28 16:18N 33°38' W 118°23'5 6.3
2014-Aug-28 15:33N 33°40' W 118°18'5 0.2
2014-Aug-27 17:28N 33°45' W 118°16'0 0.0
2014-Aug-27 16:33N 33°45' W 118°16'0 0.0
2014-Aug-27 15:33N 33°45' W 118°16'0 0.0
2014-Aug-27 14:34N 33°45' W 118°16'0 0.0
2014-Aug-27 13:28N 33°45' W 118°16'4 4.1
2014-Aug-27 12:33N 33°41' W 118°16'7 7.2
2014-Aug-27 11:33N 33°36' W 118°21'8 7.3
2014-Aug-27 10:28N 33°29' W 118°27'  
2014-Aug-22 21:26N 33°26' W 118°34'  

Dump ship's entire track history